Jordan, MT

11:59 PM MDT on April 22, 2017 (GMT -0600)
Wokal-Glasgow International | | Change Station
Active Advisory: Lake Wind Advisory

Elev 2293 ft 48.21 °N, 106.61 °W | Updated 6 minutes ago

Mostly Cloudy
Mostly Cloudy
41 °F
Feels Like 31 °F
N
24
Wind Variable Wind from East
Gusts 30 mph

Today
High -- | Low -- °F
--% Chance of Precip.
Yesterday
High -- | Low -- °F
Precip. -- in
Pressure 30.04 in
Visibility 10.0 miles
Clouds Few 5000 ft
Mostly Cloudy 8000 ft
Windchill 31 °F
Dew Point 35 °F
Humidity 79%
Rainfall 0.00 in
Snow Depth Not available.
6:06 AM 8:07 PM
Waning Crescent, 14% visible
METAR KGGW 230553Z AUTO 09021G26KT 10SM FEW050 BKN080 05/02 A2999 RMK AO2 PK WND 09027/0502 SLP173 T00500017 10106 20050 58010 $
Pressure 30.04 in
Visibility 10.0 miles
Clouds Few 5000 ft
Mostly Cloudy 8000 ft
Windchill 31 °F
Dew Point 35 °F
Humidity 79%
Rainfall 0.00 in
Snow Depth Not available.
6:06 AM 8:07 PM
Waning Crescent, 14% visible
METAR KGGW 230553Z AUTO 09021G26KT 10SM FEW050 BKN080 05/02 A2999 RMK AO2 PK WND 09027/0502 SLP173 T00500017 10106 20050 58010 $

Get Your Daily Forecast Email!

Thanks for signing up!

Be on the lookout for a verification email in your inbox.

You'll start receiving severe weather alerts in your inbox..

×

10-Day Weather Forecast

Almanac

Astronomy

Apr. 22, 2017 Rise Set
Actual Time
Civil Twilight
Nautical Twilight
Astronomical Twilight
Moon
Length of Visible Light
Length of Day
Tomorrow will be .
, % of the Moon is Illuminated

Today's Extremes

State Highs State Lows

Community

WunderPhotos

WunderBlog® & News

Nearby

Air Quality

  Air Quality AQ Index Pollutant
Not available.

Snow Depth

Station Depth Elevation

Earthquake Activity

City Distance Mag. Time & Date
Minimum magnitude displayed is 2.5.

Coastal Water Temperatures

Place Temperature

Stations

Nearby Weather Stations

Station Location Temp. Windchill Dew Point Humidity Wind Precip. Elev Updated Type
                   

Watches & Warnings

Lake Wind Advisory
Issued: 2:52 PM MDT Apr. 22, 2017 – National Weather Service

... Lake Wind Advisory in effect from 6 am to 6 PM MDT Sunday for
Fort Peck Lake...

The National Weather Service in Glasgow has issued a lake Wind
Advisory for Fort Peck Lake... which is in effect from 6 am to
6 PM MDT Sunday.

* Winds... east winds increasing into the 15 to 25 mph range with
gusts to 30 mph possible.

* Timing... winds will be in criteria by 6 am Sunday, Peak around
noon time and slowly drop off through 6 PM Sunday.

* Impacts... waves in the open areas of Fort Peck Lake will be
fairly high.

Precautionary/preparedness actions...

Boaters should use extreme caution if venturing onto Fort Peck
Lake. These winds will make open waters of the lake rough and
hazardous, and may result in high waves which may tip or swamp
smaller craft. For your personal safety, avoid the open waters.
Stay close to shore or around protected areas.